Time;durP1;ratioP1;P1;durP2;ratioP2;P2;SDS_P1;SDS_P2;PMS_P1;PMS_P2;Temp;Humidity;BMP_temperature;BMP_pressure;BME280_temperature;BME280_humidity;BME280_pressure;Samples;Min_cycle;Max_cycle;Signal;HPM_P1;HPM_P2
2021/06/24 00:01:10;;;;;;;62.65;48.17;;;;;;;22.16;72.32;97350.59;1784595;80;25666;-86
2021/06/24 00:03:38;;;;;;;65.52;49.73;;;;;;;22.14;72.40;97344.55;1775052;80;25701;-86
2021/06/24 00:06:06;;;;;;;63.23;48.75;;;;;;;22.13;72.43;97352.53;1763966;80;27329;-88
2021/06/24 00:08:34;;;;;;;63.40;48.30;;;;;;;22.11;72.49;97351.44;1784459;80;25671;-88
2021/06/24 00:11:02;;;;;;;64.95;48.70;;;;;;;22.10;72.52;97357.22;1784602;80;25753;-87
2021/06/24 00:13:29;;;;;;;60.67;47.30;;;;;;;22.08;72.50;97347.09;1784696;80;26409;-87
2021/06/24 00:15:56;;;;;;;61.48;47.78;;;;;;;22.01;72.51;97343.83;1784673;80;25768;-86
2021/06/24 00:18:23;;;;;;;62.75;48.38;;;;;;;21.97;72.58;97339.44;1774723;80;27343;-87
2021/06/24 00:20:51;;;;;;;60.80;50.20;;;;;;;21.92;72.59;97334.79;1758823;80;25666;-87
2021/06/24 00:23:19;;;;;;;60.73;48.90;;;;;;;21.88;72.68;97329.59;1779554;80;25745;-87
2021/06/24 00:25:45;;;;;;;64.03;50.15;;;;;;;21.87;72.70;97325.75;1753281;80;26311;-87
2021/06/24 00:28:15;;;;;;;63.73;49.13;;;;;;;21.84;72.71;97314.80;1760939;80;25699;-87
2021/06/24 00:30:41;;;;;;;60.10;46.73;;;;;;;21.82;72.76;97313.44;1746927;80;27643;-87
2021/06/24 00:33:07;;;;;;;63.98;48.80;;;;;;;21.76;72.79;97299.45;1784531;80;25920;-87
2021/06/24 00:35:34;;;;;;;62.78;48.17;;;;;;;21.63;72.92;97292.67;1782352;79;25876;-87
2021/06/24 00:38:01;;;;;;;61.00;48.45;;;;;;;21.63;72.92;97292.67;1763173;80;26357;-87
2021/06/24 00:40:28;;;;;;;61.37;47.90;;;;;;;21.62;72.97;97301.19;1781681;80;25287;-86
2021/06/24 00:42:54;;;;;;;59.05;47.83;;;;;;;21.60;73.02;97305.63;1759846;80;28242;-87
2021/06/24 00:45:21;;;;;;;60.48;48.45;;;;;;;21.58;73.07;97289.97;1781487;80;26020;-86
2021/06/24 00:47:47;;;;;;;58.45;46.92;;;;;;;21.56;73.04;97289.44;1781243;80;25702;-87
2021/06/24 00:50:15;;;;;;;63.52;47.98;;;;;;;21.49;72.99;97288.36;1781613;80;25709;-87
2021/06/24 00:52:42;;;;;;;61.75;48.45;;;;;;;21.44;73.05;97287.03;1777826;80;25879;-87
2021/06/24 00:55:10;;;;;;;62.60;48.70;;;;;;;21.39;73.10;97290.34;1779565;80;27180;-87
2021/06/24 00:57:37;;;;;;;58.58;46.68;;;;;;;21.31;73.17;97281.34;1781560;80;26418;-87
2021/06/24 01:00:07;;;;;;;56.55;45.17;;;;;;;21.27;73.24;97287.12;1750296;79;25853;-87
2021/06/24 01:02:34;;;;;;;62.53;48.90;;;;;;;21.18;73.23;97280.86;1781421;80;25728;-88
2021/06/24 01:05:01;;;;;;;59.90;48.15;;;;;;;21.07;73.36;97284.72;1758703;80;25233;-87
2021/06/24 01:07:28;;;;;;;61.42;48.92;;;;;;;20.99;73.59;97272.97;1757163;80;27352;-87
2021/06/24 01:09:55;;;;;;;60.12;48.52;;;;;;;20.95;73.65;97268.31;1737505;80;25733;-87
2021/06/24 01:12:21;;;;;;;63.02;47.05;;;;;;;20.91;73.76;97265.30;1767849;79;25833;-87
2021/06/24 01:14:54;;;;;;;58.00;45.75;;;;;;;20.88;73.80;97254.91;1797187;79;26559;-87
2021/06/24 01:17:18;;;;;;;59.55;46.85;;;;;;;20.86;73.81;97254.37;1769103;80;25821;-87
2021/06/24 01:19:45;;;;;;;61.80;47.40;;;;;;;20.82;73.82;97259.59;1781513;80;27588;-87
2021/06/24 01:22:12;;;;;;;61.00;45.33;;;;;;;20.79;73.81;97264.80;1781337;79;25729;-86
2021/06/24 01:24:40;;;;;;;63.45;45.65;;;;;;;20.77;73.92;97263.70;1781559;80;25840;-87
2021/06/24 01:27:07;;;;;;;57.20;45.25;;;;;;;20.75;73.92;97259.63;1780787;80;25589;-87
2021/06/24 01:29:33;;;;;;;57.43;44.83;;;;;;;20.72;73.91;97267.86;1781415;79;25794;-87
2021/06/24 01:32:00;;;;;;;57.88;46.45;;;;;;;20.62;73.74;97264.33;1781401;80;27568;-87
2021/06/24 01:34:27;;;;;;;64.53;46.65;;;;;;;20.53;73.89;97263.27;1750940;80;26026;-87
2021/06/24 01:36:53;;;;;;;63.20;47.43;;;;;;;20.51;74.12;97269.57;1780962;80;25908;-88
2021/06/24 01:39:20;;;;;;;60.12;45.15;;;;;;;20.41;74.11;97264.36;1783761;79;25675;-86
2021/06/24 01:41:57;;;;;;;56.13;45.43;;;;;;;20.31;74.23;97261.61;1784474;79;25720;-86
2021/06/24 01:44:35;;;;;;;57.40;45.40;;;;;;;20.30;74.49;97263.26;1780686;80;27405;-87
2021/06/24 01:47:04;;;;;;;57.05;45.48;;;;;;;20.23;74.43;97261.36;1778085;80;25735;-87
2021/06/24 01:49:31;;;;;;;59.65;45.73;;;;;;;20.20;74.62;97253.14;1784461;80;25808;-87
2021/06/24 01:51:58;;;;;;;62.00;45.67;;;;;;;20.20;74.62;97248.20;1784349;80;26097;-87
2021/06/24 01:54:24;;;;;;;59.88;47.50;;;;;;;20.07;74.46;97257.81;1781282;80;25816;-87
2021/06/24 01:56:51;;;;;;;61.58;47.23;;;;;;;20.05;74.67;97258.08;1766935;80;27340;-87
2021/06/24 01:59:17;;;;;;;59.42;47.93;;;;;;;20.01;74.62;97250.70;1763481;80;25769;-87
2021/06/24 02:01:44;;;;;;;55.38;46.08;;;;;;;19.91;74.76;97254.83;1767914;80;25734;-86
2021/06/24 02:04:11;;;;;;;64.45;48.42;;;;;;;19.90;74.93;97254.01;1775772;79;25789;-88
2021/06/24 02:06:38;;;;;;;57.62;46.15;;;;;;;19.82;74.87;97247.69;1782528;80;25720;-87
2021/06/24 02:09:05;;;;;;;66.02;47.53;;;;;;;19.80;75.04;97252.64;1783344;80;28033;-88
2021/06/24 02:11:33;;;;;;;56.20;44.77;;;;;;;19.83;75.07;97253.98;1768147;80;25714;-88
2021/06/24 02:13:59;;;;;;;54.67;43.23;;;;;;;19.81;74.98;97257.55;1785114;79;25858;-87
2021/06/24 02:16:26;;;;;;;58.17;43.23;;;;;;;19.83;75.04;97258.09;1796822;78;26173;-88
2021/06/24 02:18:53;;;;;;;55.88;41.37;;;;;;;19.77;74.99;97258.11;1775426;80;25781;-86
2021/06/24 02:21:19;;;;;;;58.78;44.63;;;;;;;19.74;75.06;97250.44;1775578;80;27353;-87
2021/06/24 02:23:46;;;;;;;61.10;46.18;;;;;;;19.71;75.01;97253.72;1784285;80;25705;-88
2021/06/24 02:26:13;;;;;;;59.33;44.53;;;;;;;19.69;75.08;97258.64;1784459;80;26410;-88
2021/06/24 02:28:39;;;;;;;57.05;45.55;;;;;;;19.65;75.05;97258.93;1769310;80;26045;-87
2021/06/24 02:31:06;;;;;;;60.03;44.90;;;;;;;19.63;75.14;97262.48;1784570;79;26531;-88
2021/06/24 02:33:33;;;;;;;57.48;46.92;;;;;;;19.61;75.19;97268.77;1783080;80;27354;-88
2021/06/24 02:36:00;;;;;;;60.50;45.40;;;;;;;19.60;75.23;97273.15;1783809;80;26059;-88
2021/06/24 02:38:28;;;;;;;60.58;45.48;;;;;;;19.58;75.29;97276.16;1782501;79;25367;-89
2021/06/24 02:40:55;;;;;;;61.68;46.25;;;;;;;19.56;75.34;97272.86;1781140;80;25845;-89
2021/06/24 02:43:22;;;;;;;61.28;45.40;;;;;;;19.51;75.29;97275.61;1773556;80;25796;-88
2021/06/24 02:45:48;;;;;;;54.48;42.33;;;;;;;19.47;75.39;97278.57;1778281;80;27422;-88
2021/06/24 02:48:15;;;;;;;56.30;43.87;;;;;;;19.42;75.41;97278.58;1781492;80;25716;-88
2021/06/24 02:50:41;;;;;;;55.28;45.20;;;;;;;19.41;75.47;97277.76;1781155;80;25766;-89
2021/06/24 02:53:08;;;;;;;62.55;47.33;;;;;;;19.39;75.60;97280.48;1781282;79;25710;-88
2021/06/24 02:55:35;;;;;;;60.30;46.42;;;;;;;19.37;75.70;97276.64;1781390;80;25780;-88
2021/06/24 02:58:02;;;;;;;60.78;46.18;;;;;;;19.38;75.82;97277.47;1781494;79;27529;-88
2021/06/24 03:00:29;;;;;;;64.40;47.55;;;;;;;19.35;75.76;97273.35;1781435;80;25740;-88
2021/06/24 03:02:56;;;;;;;60.23;46.45;;;;;;;19.35;75.85;97267.88;1781431;80;25763;-89
2021/06/24 03:05:23;;;;;;;58.95;46.58;;;;;;;19.30;75.89;97265.14;1781360;79;26186;-89
2021/06/24 03:07:49;;;;;;;61.60;46.85;;;;;;;19.30;76.00;97258.84;1781708;79;25745;-89
2021/06/24 03:10:18;;;;;;;66.55;48.92;;;;;;;19.29;76.03;97257.20;1781455;79;28090;-88
2021/06/24 03:12:45;;;;;;;56.35;43.58;;;;;;;19.29;76.11;97255.84;1771423;79;25428;-89
2021/06/24 03:15:13;;;;;;;52.80;43.55;;;;;;;19.31;76.12;97256.39;1781526;80;25693;-90
2021/06/24 03:17:40;;;;;;;60.60;44.60;;;;;;;19.30;76.03;97262.41;1770320;80;26328;-89
2021/06/24 03:20:10;;;;;;;57.15;42.62;;;;;;;19.30;76.14;97253.38;1763162;80;25543;-89
2021/06/24 03:22:37;;;;;;;57.88;43.48;;;;;;;19.29;76.12;97254.47;1781469;80;28162;-89
2021/06/24 03:25:08;;;;;;;61.42;45.63;;;;;;;19.28;76.16;97250.08;1775756;80;25836;-89
2021/06/24 03:27:35;;;;;;;59.83;43.90;;;;;;;19.23;76.13;97250.06;1767108;80;25231;-89
2021/06/24 03:30:04;;;;;;;61.85;46.20;;;;;;;19.21;76.24;97245.40;1781536;79;26184;-90
2021/06/24 03:32:30;;;;;;;60.73;45.92;;;;;;;19.24;76.29;97255.81;1784901;79;25966;-89
2021/06/24 03:34:57;;;;;;;62.03;48.65;;;;;;;19.22;76.33;97250.60;1777806;79;27353;-90
2021/06/24 03:37:24;;;;;;;63.45;47.38;;;;;;;19.21;76.39;97246.22;1763404;80;25657;-90
2021/06/24 03:39:50;;;;;;;59.05;45.90;;;;;;;19.21;76.44;97242.66;1775980;80;25740;-90
2021/06/24 03:42:17;;;;;;;61.23;47.67;;;;;;;19.21;76.42;97249.50;1764700;80;25690;-89
2021/06/24 03:44:43;;;;;;;62.30;48.05;;;;;;;19.18;76.51;97242.68;1773393;80;25843;-90
2021/06/24 03:47:10;;;;;;;61.23;47.25;;;;;;;19.14;76.58;97232.53;1776262;80;27352;-91
2021/06/24 03:49:37;;;;;;;65.95;50.28;;;;;;;19.15;76.73;97233.64;1775926;80;25272;-90
2021/06/24 03:52:03;;;;;;;71.07;51.55;;;;;;;19.22;76.93;97233.36;1774547;80;25743;-90
2021/06/24 03:54:30;;;;;;;72.47;53.85;;;;;;;19.26;77.04;97235.84;1776271;80;25802;-89
2021/06/24 03:56:57;;;;;;;75.22;53.38;;;;;;;19.29;77.13;97234.77;1776227;80;25693;-90
2021/06/24 03:59:24;;;;;;;70.70;53.35;;;;;;;19.31;77.17;97226.29;1773965;80;27428;-88
2021/06/24 04:01:50;;;;;;;73.00;54.10;;;;;;;19.35;77.21;97227.37;1776085;80;25725;-90
2021/06/24 04:04:17;;;;;;;76.25;53.30;;;;;;;19.40;77.22;97225.47;1774354;80;25252;-89
2021/06/24 04:06:43;;;;;;;75.47;52.65;;;;;;;19.46;77.26;97226.28;1780953;79;25768;-89
2021/06/24 04:09:11;;;;;;;69.05;50.23;;;;;;;19.53;77.28;97220.59;1776228;80;25653;-89
2021/06/24 04:11:38;;;;;;;71.57;51.25;;;;;;;19.56;77.25;97216.73;1768705;80;28014;-89
2021/06/24 04:14:04;;;;;;;71.47;53.13;;;;;;;19.59;77.21;97210.72;1768472;80;25809;-89
2021/06/24 04:16:31;;;;;;;74.32;53.73;;;;;;;19.60;77.25;97217.84;1776039;80;25743;-90
2021/06/24 04:18:57;;;;;;;68.52;53.20;;;;;;;19.63;77.31;97215.94;1776231;80;25766;-89
2021/06/24 04:21:24;;;;;;;70.60;52.88;;;;;;;19.68;77.34;97209.65;1775969;79;25733;-89
2021/06/24 04:23:51;;;;;;;67.32;52.38;;;;;;;19.72;77.40;97212.91;1776005;80;27410;-89
2021/06/24 04:26:17;;;;;;;71.57;51.77;;;;;;;19.77;77.34;97219.77;1775885;80;25843;-89
2021/06/24 04:28:44;;;;;;;71.25;53.23;;;;;;;19.83;77.34;97228.80;1776157;80;25832;-89
2021/06/24 04:31:10;;;;;;;75.72;54.65;;;;;;;19.87;77.34;97222.22;1776294;80;26147;-89
2021/06/24 04:33:37;;;;;;;73.33;53.20;;;;;;;19.90;77.38;97224.42;1776459;80;26232;-89
2021/06/24 04:36:04;;;;;;;77.20;54.27;;;;;;;19.96;77.41;97224.13;1776312;80;28434;-89
2021/06/24 04:38:31;;;;;;;74.10;55.43;;;;;;;20.00;77.39;97221.13;1783475;78;25772;-89
2021/06/24 04:40:57;;;;;;;80.70;55.85;;;;;;;20.05;77.41;97213.42;1767639;80;25797;-90
2021/06/24 04:43:24;;;;;;;77.95;55.12;;;;;;;20.09;77.42;97220.83;1779443;79;25823;-89
2021/06/24 04:45:51;;;;;;;71.82;55.03;;;;;;;20.16;77.46;97220.55;1779185;80;25722;-89
2021/06/24 04:48:17;;;;;;;76.47;55.55;;;;;;;20.20;77.49;97220.80;1779233;80;27346;-89
2021/06/24 04:50:44;;;;;;;79.50;55.50;;;;;;;20.25;77.61;97220.80;1773709;80;25726;-89
2021/06/24 04:53:10;;;;;;;73.70;55.23;;;;;;;20.30;77.71;97211.18;1770901;80;25713;-90
2021/06/24 04:55:39;;;;;;;81.50;57.73;;;;;;;20.35;77.86;97207.07;1780164;79;26570;-89
2021/06/24 04:58:07;;;;;;;78.07;57.03;;;;;;;20.40;77.96;97209.29;1778161;79;26251;-89
2021/06/24 05:11:38;;;;;;;76.92;57.15;;;;;;;21.41;77.44;97197.53;1866679;76;25583;-82
2021/06/24 05:14:05;;;;;;;74.53;54.27;;;;;;;21.37;77.79;97212.96;1824045;78;25743;-83
2021/06/24 05:16:31;;;;;;;78.15;56.18;;;;;;;21.37;77.93;97207.47;1823615;77;27299;-82
2021/06/24 05:18:58;;;;;;;78.45;56.10;;;;;;;21.40;78.00;97213.19;1823976;78;26136;-83
2021/06/24 05:21:24;;;;;;;78.55;56.10;;;;;;;21.43;78.07;97204.94;1824225;78;25746;-83
2021/06/24 05:23:51;;;;;;;71.53;53.75;;;;;;;21.48;78.22;97213.98;1806612;78;25789;-84
2021/06/24 05:26:18;;;;;;;74.97;55.30;;;;;;;21.52;78.21;97212.83;1811487;78;25653;-83
2021/06/24 05:28:44;;;;;;;74.17;54.70;;;;;;;21.55;78.22;97214.46;1824077;78;28330;-84
2021/06/24 05:31:11;;;;;;;70.28;52.98;;;;;;;21.60;78.24;97208.67;1824274;78;25996;-85
2021/06/24 05:33:37;;;;;;;63.68;48.20;;;;;;;21.64;78.27;97206.42;1824355;78;25285;-84
2021/06/24 05:36:05;;;;;;;59.80;47.17;;;;;;;21.70;78.25;97206.66;1804833;78;25749;-84
2021/06/24 05:38:32;;;;;;;55.63;46.73;;;;;;;21.75;78.14;97205.22;1813715;77;25786;-82
2021/06/24 05:40:59;;;;;;;61.30;46.37;;;;;;;21.81;78.04;97205.46;1823783;78;27472;-83
2021/06/24 05:43:26;;;;;;;59.98;45.73;;;;;;;21.86;77.98;97199.91;1794471;78;25750;-83
2021/06/24 05:45:52;;;;;;;58.92;47.25;;;;;;;21.95;77.93;97211.66;1800492;78;25725;-82
2021/06/24 05:48:19;;;;;;;56.90;45.35;;;;;;;22.01;77.78;97214.65;1798569;78;25746;-83
2021/06/24 05:50:46;;;;;;;53.95;45.48;;;;;;;22.05;77.69;97207.48;1819690;78;25751;-83
2021/06/24 05:53:12;;;;;;;62.10;46.42;;;;;;;22.10;77.67;97204.11;1802065;78;27395;-83
2021/06/24 05:55:49;;;;;;;53.20;43.92;;;;;;;22.17;77.58;97206.53;1792559;78;26121;-83
2021/06/24 05:58:23;;;;;;;57.65;42.83;;;;;;;22.23;77.34;97206.73;1824565;78;26199;-82
2021/06/24 06:00:53;;;;;;;52.10;42.10;;;;;;;22.29;77.35;97216.58;1817256;77;25731;-84
2021/06/24 06:03:21;;;;;;;57.33;44.58;;;;;;;22.36;77.30;97204.67;1800843;78;25242;-82
2021/06/24 06:05:49;;;;;;;54.75;43.10;;;;;;;22.45;77.22;97207.62;1820613;78;28392;-83
2021/06/24 06:08:16;;;;;;;58.20;45.05;;;;;;;22.51;77.16;97206.44;1797461;78;25768;-84
2021/06/24 06:10:42;;;;;;;65.75;48.80;;;;;;;22.58;77.19;97204.95;1827055;78;25628;-82
2021/06/24 06:13:10;;;;;;;61.00;47.50;;;;;;;22.66;77.06;97210.95;1830254;78;26087;-81
2021/06/24 06:15:43;;;;;;;60.83;47.58;;;;;;;22.72;76.94;97211.13;1811603;77;25751;-83
2021/06/24 06:18:17;;;;;;;61.45;47.05;;;;;;;22.78;76.84;97210.82;1804256;78;27436;-83
2021/06/24 06:20:45;;;;;;;56.33;45.95;;;;;;;22.85;76.77;97217.33;1830065;78;25777;-84
2021/06/24 06:23:13;;;;;;;59.15;46.55;;;;;;;22.95;76.62;97211.69;1829816;77;25864;-81
2021/06/24 06:25:40;;;;;;;55.70;45.03;;;;;;;22.95;76.62;97211.69;1813119;78;25674;-84
2021/06/24 06:28:07;;;;;;;54.42;45.95;;;;;;;23.02;76.44;97210.78;1823892;78;25747;-84
2021/06/24 06:30:34;;;;;;;52.25;43.35;;;;;;;23.08;76.32;97212.34;1829831;77;28299;-84
2021/06/24 06:33:02;;;;;;;55.58;43.90;;;;;;;23.14;76.07;97211.72;1829385;78;25782;-84
2021/06/24 06:35:30;;;;;;;59.13;44.75;;;;;;;23.22;76.39;97210.49;1826773;78;25991;-83
2021/06/24 06:37:57;;;;;;;54.85;41.58;;;;;;;23.22;76.39;97210.49;1826659;78;25686;-84
2021/06/24 06:40:23;;;;;;;46.02;40.23;;;;;;;23.33;75.55;97210.60;1821171;76;25746;-84
2021/06/24 06:42:50;;;;;;;52.10;40.90;;;;;;;23.33;75.55;97210.60;1815964;78;26867;-84
2021/06/24 06:45:21;;;;;;;47.80;40.08;;;;;;;23.45;75.04;97210.71;1823901;78;25625;-83
2021/06/24 06:47:48;;;;;;;54.90;43.33;;;;;;;23.45;75.04;97210.71;1812624;78;25731;-84
2021/06/24 06:50:15;;;;;;;47.03;39.78;;;;;;;23.52;75.16;97201.56;1829699;78;25870;-82
2021/06/24 06:52:43;;;;;;;51.68;40.00;;;;;;;23.63;75.08;97201.66;1829617;77;25605;-84
2021/06/24 06:55:11;;;;;;;49.73;40.58;;;;;;;23.71;74.61;97191.31;1828193;78;28074;-82
2021/06/24 06:57:38;;;;;;;51.18;41.55;;;;;;;23.79;74.52;97195.34;1761939;80;26018;-85
2021/06/24 07:00:08;;;;;;;51.75;39.20;;;;;;;23.87;74.44;97189.95;1782007;80;25743;-82
2021/06/24 07:02:34;;;;;;;44.35;37.88;;;;;;;23.95;74.28;97187.87;1782865;79;26946;-82
2021/06/24 07:05:01;;;;;;;47.03;38.08;;;;;;;24.00;73.43;97161.60;1793568;79;25727;-82
2021/06/24 07:07:27;;;;;;;45.98;38.00;;;;;;;24.06;73.21;97158.99;1793394;79;27261;-82
2021/06/24 07:09:54;;;;;;;46.77;37.93;;;;;;;24.06;73.21;97158.99;1793064;78;25717;-82
2021/06/24 07:12:21;;;;;;;47.67;37.83;;;;;;;24.27;73.37;97182.89;1787212;79;25784;-83
2021/06/24 07:14:48;;;;;;;40.98;34.98;;;;;;;24.37;73.24;97183.28;1787170;80;26162;-83
2021/06/24 07:17:15;;;;;;;41.92;34.05;;;;;;;24.47;73.04;97186.41;1787220;79;25745;-83
2021/06/24 07:19:41;;;;;;;43.02;34.63;;;;;;;24.54;72.64;97189.00;1787332;80;27117;-84
2021/06/24 07:22:08;;;;;;;42.93;35.15;;;;;;;24.65;72.79;97184.09;1768105;80;25822;-83
2021/06/24 07:24:35;;;;;;;40.73;34.58;;;;;;;24.78;72.76;97188.23;1768837;78;25812;-83
2021/06/24 07:27:01;;;;;;;41.02;34.67;;;;;;;24.89;72.49;97191.59;1781583;80;25775;-83
2021/06/24 07:29:28;;;;;;;43.68;33.98;;;;;;;24.98;72.07;97194.49;1781723;80;25737;-83
2021/06/24 07:31:55;;;;;;;40.28;33.63;;;;;;;25.06;71.97;97190.42;1737991;80;28403;-83
2021/06/24 07:34:21;;;;;;;38.88;32.78;;;;;;;25.17;71.92;97189.63;1737377;80;26077;-84
2021/06/24 07:36:49;;;;;;;37.65;32.13;;;;;;;25.28;71.98;97189.66;1776930;80;25753;-84
2021/06/24 07:39:16;;;;;;;40.15;33.53;;;;;;;25.43;72.03;97196.22;1781605;80;26080;-84
2021/06/24 07:41:43;;;;;;;40.38;33.88;;;;;;;25.56;71.60;97190.95;1750565;80;25737;-83
2021/06/24 07:44:10;;;;;;;38.75;31.93;;;;;;;25.67;71.61;97189.05;1781497;80;27393;-84
2021/06/24 07:46:37;;;;;;;36.17;31.40;;;;;;;25.81;71.57;97177.92;1750672;80;25925;-85
2021/06/24 07:49:04;;;;;;;43.98;33.25;;;;;;;25.95;71.38;97175.91;1781595;80;25768;-85
2021/06/24 07:51:31;;;;;;;40.45;32.40;;;;;;;26.10;71.24;97172.72;1781582;79;25959;-84
2021/06/24 07:53:58;;;;;;;39.18;31.05;;;;;;;26.23;70.83;97178.48;1781359;80;26373;-84
2021/06/24 07:56:25;;;;;;;34.53;28.83;;;;;;;26.39;70.22;97183.89;1781361;80;28245;-84
2021/06/24 07:58:53;;;;;;;37.48;28.65;;;;;;;26.51;69.89;97186.31;1773998;80;25840;-83
2021/06/24 08:01:20;;;;;;;38.02;27.93;;;;;;;26.71;69.58;97179.94;1758583;80;26447;-85
2021/06/24 08:03:46;;;;;;;36.28;30.08;;;;;;;27.02;69.49;97181.30;1781705;79;25712;-85
2021/06/24 08:06:13;;;;;;;36.20;27.55;;;;;;;27.33;68.44;97186.13;1781662;79;25752;-86
2021/06/24 08:08:39;;;;;;;35.85;26.45;;;;;;;27.72;67.89;97178.26;1781708;80;27408;-83
2021/06/24 08:11:06;;;;;;;35.98;25.30;;;;;;;28.14;67.33;97172.95;1760312;80;25648;-84
2021/06/24 08:13:33;;;;;;;34.78;23.52;;;;;;;28.57;66.83;97175.63;1784660;80;26012;-84
2021/06/24 08:15:59;;;;;;;29.18;22.32;;;;;;;28.96;65.72;97173.09;1784766;80;25832;-84
2021/06/24 08:18:26;;;;;;;30.60;21.85;;;;;;;29.36;65.46;97171.50;1784610;80;25740;-86
2021/06/24 08:20:53;;;;;;;31.45;20.95;;;;;;;29.77;64.47;97171.85;1759221;80;27531;-85
2021/06/24 08:23:20;;;;;;;29.65;20.37;;;;;;;30.11;63.56;97174.32;1757826;80;25704;-84
2021/06/24 08:25:47;;;;;;;27.37;21.07;;;;;;;30.49;62.83;97163.50;1784640;79;26245;-85
2021/06/24 08:28:14;;;;;;;23.10;19.50;;;;;;;30.80;61.88;97170.73;1784745;80;25271;-83
2021/06/24 08:30:44;;;;;;;29.20;20.20;;;;;;;31.10;61.36;97174.13;1784770;80;25682;-84
2021/06/24 08:33:11;;;;;;;26.57;20.77;;;;;;;31.43;60.88;97168.38;1783528;80;27609;-85
2021/06/24 08:35:38;;;;;;;24.75;19.07;;;;;;;31.73;60.09;97167.51;1764584;80;25879;-86
2021/06/24 08:38:05;;;;;;;25.55;18.98;;;;;;;32.03;59.24;97167.94;1764111;80;25737;-85
2021/06/24 08:40:32;;;;;;;25.08;18.87;;;;;;;32.35;58.66;97168.28;1783727;80;25975;-85
2021/06/24 08:42:59;;;;;;;26.20;17.60;;;;;;;32.65;58.04;97166.43;1784740;80;25740;-86
2021/06/24 08:45:26;;;;;;;24.87;15.93;;;;;;;32.93;56.96;97171.38;1778918;80;28375;-86
2021/06/24 08:47:53;;;;;;;21.75;15.78;;;;;;;33.18;56.15;97172.77;1768762;80;25796;-83
2021/06/24 08:50:20;;;;;;;23.47;15.53;;;;;;;33.45;55.52;97173.01;1762890;80;25772;-87
2021/06/24 08:52:49;;;;;;;19.42;15.08;;;;;;;33.66;54.77;97163.67;1784837;80;25768;-86
2021/06/24 08:55:18;;;;;;;22.75;14.33;;;;;;;33.83;53.62;97173.63;1783647;80;25684;-85
2021/06/24 08:57:45;;;;;;;18.73;13.10;;;;;;;34.10;53.08;97166.17;1764430;80;27424;-87
2021/06/24 09:00:13;;;;;;;24.23;14.40;;;;;;;34.35;52.38;97167.49;1784584;80;25678;-84
2021/06/24 09:02:46;;;;;;;20.70;13.72;;;;;;;34.52;51.27;97166.20;1776024;80;25275;-86
2021/06/24 09:05:15;;;;;;;15.90;12.68;;;;;;;34.65;51.02;97160.04;1773359;80;25729;-85
2021/06/24 09:07:51;;;;;;;19.37;12.60;;;;;;;34.89;50.69;97158.05;1780469;80;25712;-85
2021/06/24 09:10:19;;;;;;;23.20;12.63;;;;;;;35.11;49.63;97166.20;1769769;80;28209;-85
2021/06/24 09:13:03;;;;;;;22.07;12.13;;;;;;;35.32;48.95;97160.34;1743559;80;25861;-83
2021/06/24 09:15:38;;;;;;;21.97;11.73;;;;;;;35.36;47.37;97149.98;1781298;80;25651;-87
2021/06/24 09:18:21;;;;;;;21.37;12.33;;;;;;;35.47;47.49;97153.53;1771788;80;26159;-85
2021/06/24 09:20:47;;;;;;;21.75;13.00;;;;;;;35.68;46.88;97155.21;1780476;80;25310;-84
2021/06/24 09:23:21;;;;;;;21.33;12.98;;;;;;;35.72;46.10;97153.27;1781649;80;27526;-86
2021/06/24 09:26:01;;;;;;;19.90;12.93;;;;;;;35.87;45.95;97157.07;1785234;79;25720;-84
2021/06/24 09:28:42;;;;;;;28.85;14.10;;;;;;;36.08;45.79;97149.72;1771156;80;25836;-86
2021/06/24 09:31:30;;;;;;;21.15;14.00;;;;;;;36.17;45.22;97148.59;1779954;80;25389;-88
2021/06/24 09:34:07;;;;;;;19.73;12.65;;;;;;;36.30;45.29;97155.59;1786970;79;25769;-87
2021/06/24 09:36:44;;;;;;;21.25;11.95;;;;;;;36.42;44.42;97149.10;1781479;80;27332;-87
2021/06/24 09:39:33;;;;;;;18.00;11.88;;;;;;;36.52;43.87;97140.55;1781452;80;25684;-89
2021/06/24 09:42:10;;;;;;;23.52;11.90;;;;;;;36.53;43.66;97150.61;1781375;80;26176;-86
2021/06/24 09:44:43;;;;;;;17.77;11.40;;;;;;;36.60;42.89;97149.84;1783895;79;25568;-88
2021/06/24 09:47:27;;;;;;;20.60;11.45;;;;;;;36.57;42.28;97143.63;1773945;79;25573;-90
2021/06/24 09:50:06;;;;;;;18.52;11.55;;;;;;;36.62;41.94;97145.46;1781719;80;27370;-88
2021/06/24 09:52:35;;;;;;;22.90;10.15;;;;;;;36.61;41.78;97141.03;1775065;80;25657;-90
2021/06/24 09:55:11;;;;;;;17.35;10.43;;;;;;;36.66;41.70;97139.28;1741605;80;25709;-91
2021/06/24 09:57:38;;;;;;;15.88;8.80;;;;;;;36.78;40.92;97139.61;1765028;80;25732;-90
2021/06/24 10:00:28;;;;;;;18.57;10.53;;;;;;;36.82;40.16;97136.84;1781906;80;25637;-87
2021/06/24 10:03:05;;;;;;;17.80;10.70;;;;;;;36.82;39.79;97124.18;1754327;80;28377;-89
2021/06/24 10:05:32;;;;;;;19.87;9.88;;;;;;;36.78;39.83;97129.77;1762171;80;25734;-87
2021/06/24 10:07:59;;;;;;;20.60;11.05;;;;;;;36.84;39.56;97125.98;1754269;81;25784;-87
2021/06/24 10:10:26;;;;;;;18.35;10.25;;;;;;;36.92;39.57;97122.05;1756134;80;25689;-87
2021/06/24 10:12:52;;;;;;;21.15;10.35;;;;;;;36.93;39.58;97123.66;1779489;78;25775;-87
2021/06/24 10:15:19;;;;;;;19.32;11.05;;;;;;;36.94;38.94;97121.06;1768175;78;28301;-87
2021/06/24 10:17:47;;;;;;;17.40;11.90;;;;;;;36.99;38.51;97115.05;1778228;80;25682;-87
2021/06/24 10:20:15;;;;;;;23.40;14.00;;;;;;;37.08;38.81;97114.10;1778323;79;25996;-86
2021/06/24 10:22:43;;;;;;;17.60;12.13;;;;;;;37.00;39.01;97108.23;1757286;80;26415;-87
2021/06/24 10:25:15;;;;;;;27.10;12.47;;;;;;;37.06;39.71;97117.93;1758035;80;25758;-87
2021/06/24 10:27:44;;;;;;;;;;;;;;;37.14;39.28;97118.17;1762458;80;27680;-87
2021/06/24 10:30:20;;;;;;;20.17;12.50;;;;;;;37.15;39.01;97114.16;1770351;80;25670;-85
2021/06/24 10:33:15;;;;;;;19.62;12.25;;;;;;;37.18;39.47;97111.20;1768319;80;26390;-87
2021/06/24 10:35:49;;;;;;;21.40;11.97;;;;;;;37.18;39.32;97100.75;1761938;80;25698;-89
2021/06/24 10:38:17;;;;;;;19.25;11.83;;;;;;;37.11;39.69;97103.47;1776778;80;25746;-93
2021/06/24 10:40:57;;;;;;;19.42;12.73;;;;;;;37.16;39.52;97103.15;1761112;80;27497;-88
2021/06/24 10:43:24;;;;;;;16.00;12.40;;;;;;;37.17;39.79;97099.73;1751724;80;25918;-90
2021/06/24 10:46:13;;;;;;;19.42;11.93;;;;;;;37.22;39.75;97102.97;1748659;80;25724;-83
2021/06/24 10:48:39;;;;;;;23.20;12.85;;;;;;;37.23;39.55;97100.36;1753870;80;26542;-89
2021/06/24 10:51:12;;;;;;;19.15;11.78;;;;;;;37.08;39.31;97097.22;1764731;80;26369;-84
2021/06/24 10:53:46;;;;;;;24.50;12.20;;;;;;;37.08;39.22;97088.78;1748513;80;27394;-86
2021/06/24 10:56:33;;;;;;;20.55;12.73;;;;;;;36.92;38.68;97088.29;1748224;80;26259;-82
2021/06/24 10:59:04;;;;;;;22.42;12.80;;;;;;;36.83;38.94;97090.64;1744519;80;25708;-82
2021/06/24 11:01:47;;;;;;;21.07;13.50;;;;;;;36.91;39.00;97081.05;1748150;80;25738;-82
2021/06/24 11:04:28;;;;;;;21.45;12.60;;;;;;;36.97;39.53;97087.91;1764859;80;25648;-86
2021/06/24 11:06:57;;;;;;;19.65;13.85;;;;;;;37.09;39.63;97084.17;1754172;80;27370;-82
2021/06/24 11:09:24;;;;;;;27.00;14.15;;;;;;;37.03;39.74;97083.54;1775891;80;25255;-84
2021/06/24 11:11:51;;;;;;;24.12;13.53;;;;;;;36.97;39.34;97080.27;1761559;79;25761;-81
2021/06/24 11:14:39;;;;;;;20.43;13.65;;;;;;;36.81;39.37;97076.97;1756876;80;25728;-83
2021/06/24 11:17:42;;;;;;;20.92;13.45;;;;;;;36.78;38.77;97072.12;1763347;80;26405;-89
2021/06/24 11:20:19;;;;;;;22.48;13.40;;;;;;;36.69;39.67;97071.63;1758765;80;28329;-85
2021/06/24 11:22:51;;;;;;;20.02;13.72;;;;;;;36.70;40.04;97068.45;1757478;80;25740;-87
2021/06/24 11:25:19;;;;;;;19.37;13.43;;;;;;;36.80;40.29;97066.91;1759582;80;25758;-85
2021/06/24 11:27:46;;;;;;;20.00;13.08;;;;;;;36.91;40.52;97068.39;1758744;80;25788;-84
2021/06/24 11:30:14;;;;;;;21.82;12.58;;;;;;;37.01;40.17;97070.45;1770291;80;25793;-84
2021/06/24 11:32:45;;;;;;;23.57;12.28;;;;;;;37.00;39.68;97054.78;1748464;80;27385;-87
2021/06/24 11:38:00;;;;;;;22.25;12.45;;;;;;;36.95;39.36;97051.75;1768317;80;25763;-82